createdAt,value
2022-12-13T00:01:54.327Z,25.3
2022-12-13T00:03:58.884Z,25.29
2022-12-13T00:06:03.546Z,25.31
2022-12-13T00:08:08.027Z,25.31
2022-12-13T00:10:12.493Z,25.32
2022-12-13T00:12:16.864Z,25.31
2022-12-13T00:14:21.161Z,25.29
2022-12-13T00:16:25.511Z,25.3
2022-12-13T00:18:30.043Z,25.29
2022-12-13T00:20:35.277Z,25.31
2022-12-13T00:22:39.573Z,25.3
2022-12-13T00:24:46.084Z,25.31
2022-12-13T00:26:50.483Z,25.3
2022-12-13T00:28:55.293Z,25.29
2022-12-13T00:31:08.579Z,25.27
2022-12-13T00:34:03.456Z,25.26
2022-12-13T00:36:07.732Z,25.25
2022-12-13T00:38:12.038Z,25.24
2022-12-13T00:40:16.378Z,25.22
2022-12-13T00:42:20.710Z,25.2
2022-12-13T00:44:25.123Z,25.19
2022-12-13T00:46:29.508Z,25.2
2022-12-13T00:48:34.109Z,25.2
2022-12-13T00:50:38.462Z,25.19
2022-12-13T00:52:42.784Z,25.18
2022-12-13T00:54:47.117Z,25.18
2022-12-13T00:56:51.406Z,25.19
2022-12-13T00:58:55.725Z,25.17
2022-12-13T01:01:00.021Z,25.16
2022-12-13T01:03:04.530Z,25.16
2022-12-13T01:05:09.064Z,25.16
2022-12-13T01:07:13.504Z,25.15
2022-12-13T01:09:17.854Z,25.14
2022-12-13T01:11:22.137Z,25.15
2022-12-13T01:13:26.535Z,25.15
2022-12-13T01:15:30.849Z,25.12
2022-12-13T01:17:35.155Z,25.13
2022-12-13T01:19:39.433Z,25.12
2022-12-13T01:21:43.720Z,25.12
2022-12-13T01:23:47.981Z,25.13
2022-12-13T01:25:52.256Z,25.1
2022-12-13T01:27:56.582Z,25.1
2022-12-13T01:30:00.852Z,25.09
2022-12-13T01:32:05.114Z,25.08
2022-12-13T01:34:09.443Z,25.1
2022-12-13T01:36:14.052Z,25.1
2022-12-13T01:38:18.384Z,25.09
2022-12-13T01:40:28.581Z,25.09
2022-12-13T01:42:32.888Z,25.05
2022-12-13T01:44:37.177Z,25.06
2022-12-13T01:46:41.440Z,25.06
2022-12-13T01:48:45.726Z,25.08
2022-12-13T01:50:50.042Z,25.08
2022-12-13T01:52:54.346Z,25.09
2022-12-13T01:55:03.425Z,25.07
2022-12-13T01:57:08.143Z,25.07
2022-12-13T01:59:12.416Z,25.07
2022-12-13T02:01:16.748Z,25.05
2022-12-13T02:03:22.000Z,25.04
2022-12-13T02:05:26.476Z,25.04
2022-12-13T02:07:30.934Z,25
2022-12-13T02:09:35.210Z,25.01
2022-12-13T02:11:39.529Z,25
2022-12-13T02:13:43.819Z,24.99
2022-12-13T02:15:48.233Z,24.99
2022-12-13T02:17:52.749Z,24.99
2022-12-13T02:19:57.027Z,24.96
2022-12-13T02:22:01.313Z,24.96
2022-12-13T02:24:08.892Z,24.96
2022-12-13T02:26:13.483Z,24.94
2022-12-13T02:28:30.278Z,24.94
2022-12-13T02:30:36.044Z,24.94
2022-12-13T02:32:40.366Z,24.92
2022-12-13T02:34:44.637Z,24.93
2022-12-13T02:36:48.912Z,24.91
2022-12-13T02:38:53.225Z,24.92
2022-12-13T02:40:57.493Z,24.9
2022-12-13T02:43:05.173Z,24.89
2022-12-13T02:45:09.487Z,24.89
2022-12-13T02:47:23.301Z,24.9
2022-12-13T02:49:27.599Z,24.91
2022-12-13T02:51:31.895Z,24.92
2022-12-13T02:53:36.169Z,24.93
2022-12-13T02:55:40.480Z,24.92
2022-12-13T02:57:44.759Z,24.92
2022-12-13T02:59:49.035Z,24.89
2022-12-13T03:02:00.754Z,24.87
2022-12-13T03:04:14.617Z,24.86
2022-12-13T03:06:18.909Z,24.86
2022-12-13T03:08:23.234Z,24.85
2022-12-13T03:10:27.860Z,24.86
2022-12-13T03:12:32.177Z,24.84
2022-12-13T03:14:36.476Z,24.84
2022-12-13T03:16:40.913Z,24.83
2022-12-13T03:18:45.199Z,24.81
2022-12-13T03:20:52.625Z,24.8
2022-12-13T03:22:57.013Z,24.81
2022-12-13T03:25:01.309Z,24.79
2022-12-13T03:27:05.608Z,24.8
2022-12-13T03:29:09.917Z,24.79
2022-12-13T03:31:14.316Z,24.77
2022-12-13T03:33:18.915Z,24.78
2022-12-13T03:35:23.270Z,24.78
2022-12-13T03:37:47.923Z,24.78
2022-12-13T03:39:52.212Z,24.79
2022-12-13T03:41:56.464Z,24.78
2022-12-13T03:44:00.780Z,24.77
2022-12-13T03:46:05.096Z,24.77
2022-12-13T03:48:09.646Z,24.77
2022-12-13T03:50:26.012Z,24.77
2022-12-13T03:52:31.110Z,24.75
2022-12-13T03:54:35.416Z,24.76
2022-12-13T03:56:39.681Z,24.74
2022-12-13T03:58:43.978Z,24.74
2022-12-13T04:00:48.249Z,24.74
2022-12-13T04:02:52.644Z,24.73
2022-12-13T04:04:57.155Z,24.74
2022-12-13T04:07:05.190Z,24.75
2022-12-13T04:09:26.239Z,24.74
2022-12-13T04:11:30.531Z,24.75
2022-12-13T04:13:34.807Z,24.74
2022-12-13T04:15:39.147Z,24.74
2022-12-13T04:17:43.500Z,24.73
2022-12-13T04:19:55.299Z,24.74
2022-12-13T04:21:59.607Z,24.73
2022-12-13T04:24:03.981Z,24.71
2022-12-13T04:26:08.265Z,24.71
2022-12-13T04:28:12.550Z,24.71
2022-12-13T04:30:26.814Z,24.73
2022-12-13T04:32:31.090Z,24.73
2022-12-13T04:34:37.677Z,24.73
2022-12-13T04:36:42.087Z,24.73
2022-12-13T04:38:46.360Z,24.74
2022-12-13T04:40:50.638Z,24.75
2022-12-13T04:42:54.924Z,24.75
2022-12-13T04:44:59.263Z,24.75
2022-12-13T04:47:04.199Z,24.75
2022-12-13T04:49:08.482Z,24.75
2022-12-13T04:51:12.816Z,24.75
2022-12-13T04:53:17.107Z,24.76
2022-12-13T04:55:21.396Z,24.74
2022-12-13T04:57:25.722Z,24.75
2022-12-13T04:59:30.021Z,24.77
2022-12-13T05:01:34.370Z,24.75
2022-12-13T05:03:38.686Z,24.73
2022-12-13T05:05:43.000Z,24.75
2022-12-13T05:07:47.273Z,24.77
2022-12-13T05:09:51.922Z,24.76
2022-12-13T05:12:01.442Z,24.77
2022-12-13T05:14:06.001Z,24.78
2022-12-13T05:16:10.319Z,24.76
2022-12-13T05:18:14.802Z,24.76
2022-12-13T05:20:19.071Z,24.76
2022-12-13T05:22:23.400Z,24.75
2022-12-13T05:24:27.679Z,24.76
2022-12-13T05:26:31.953Z,24.77
2022-12-13T05:28:36.259Z,24.78
2022-12-13T05:30:41.808Z,24.77
2022-12-13T05:32:46.114Z,24.78
2022-12-13T05:34:50.398Z,24.78
2022-12-13T05:36:54.652Z,24.79
2022-12-13T05:38:58.948Z,24.76
2022-12-13T05:41:03.245Z,24.77
2022-12-13T05:43:21.149Z,24.75
2022-12-13T05:45:44.815Z,24.77
2022-12-13T05:47:50.046Z,24.76
2022-12-13T05:49:54.359Z,24.75
2022-12-13T05:51:58.653Z,24.75
2022-12-13T05:54:02.941Z,24.73
2022-12-13T05:56:07.283Z,24.73
2022-12-13T05:58:13.070Z,24.73
2022-12-13T06:00:29.496Z,24.76
2022-12-13T06:02:35.125Z,24.8
2022-12-13T06:04:39.692Z,24.78
2022-12-13T06:06:43.950Z,24.77
2022-12-13T06:08:48.255Z,24.77
2022-12-13T06:10:52.755Z,24.77
2022-12-13T06:13:34.075Z,24.74
2022-12-13T06:15:47.702Z,24.71
2022-12-13T06:17:52.018Z,24.68
2022-12-13T06:19:56.296Z,24.67
2022-12-13T06:22:00.606Z,24.65
2022-12-13T06:24:04.904Z,24.65
2022-12-13T06:26:09.206Z,24.61
2022-12-13T06:28:13.473Z,24.55
2022-12-13T06:30:17.746Z,24.5
2022-12-13T06:32:22.043Z,24.47
2022-12-13T06:34:26.333Z,24.42
2022-12-13T06:36:30.621Z,24.39
2022-12-13T06:38:34.925Z,24.36
2022-12-13T06:40:47.767Z,24.34
2022-12-13T06:42:52.079Z,24.36
2022-12-13T06:44:56.538Z,24.34
2022-12-13T06:47:10.068Z,24.35
2022-12-13T06:49:35.219Z,24.34
2022-12-13T06:51:39.521Z,24.3
2022-12-13T06:53:43.832Z,24.3
2022-12-13T06:55:48.174Z,24.29
2022-12-13T06:57:52.465Z,24.29
2022-12-13T06:59:56.733Z,24.28
2022-12-13T07:02:03.106Z,24.29
2022-12-13T07:04:28.679Z,24.29
2022-12-13T07:06:34.968Z,24.34
2022-12-13T07:08:39.286Z,24.37
2022-12-13T07:10:43.669Z,24.39
2022-12-13T07:12:47.972Z,24.4
2022-12-13T07:14:52.295Z,24.42
2022-12-13T07:17:02.994Z,24.44
2022-12-13T07:19:23.263Z,24.44
2022-12-13T07:21:37.253Z,24.43
2022-12-13T07:23:41.525Z,24.42
2022-12-13T07:25:45.794Z,24.42
2022-12-13T07:27:50.105Z,24.39
2022-12-13T07:29:54.431Z,24.39
2022-12-13T07:32:00.941Z,24.37
2022-12-13T07:34:05.866Z,24.36
2022-12-13T07:36:16.565Z,24.35
2022-12-13T07:38:20.868Z,24.35
2022-12-13T07:40:25.192Z,24.35
2022-12-13T07:42:29.521Z,24.34
2022-12-13T07:44:33.845Z,24.34
2022-12-13T07:46:38.193Z,24.34
2022-12-13T07:48:42.756Z,24.34
2022-12-13T07:50:54.515Z,24.34
2022-12-13T07:52:59.127Z,24.34
2022-12-13T07:55:03.435Z,24.34
2022-12-13T07:57:07.737Z,24.34
2022-12-13T07:59:12.053Z,24.33
2022-12-13T08:01:16.355Z,24.33
2022-12-13T08:03:24.182Z,24.33
2022-12-13T08:05:38.454Z,24.35
2022-12-13T08:07:43.743Z,24.35
2022-12-13T08:09:52.516Z,24.34
2022-12-13T08:11:57.124Z,24.35
2022-12-13T08:14:05.542Z,24.35
2022-12-13T08:16:25.900Z,24.35
2022-12-13T08:18:33.662Z,24.36
2022-12-13T08:20:38.030Z,24.37
2022-12-13T08:22:42.317Z,24.37
2022-12-13T08:24:53.781Z,24.39
2022-12-13T08:26:58.068Z,24.39
2022-12-13T08:29:02.353Z,24.4
2022-12-13T08:31:06.730Z,24.37
2022-12-13T08:33:11.146Z,24.38
2022-12-13T08:35:15.443Z,24.35
2022-12-13T08:37:19.741Z,24.33
2022-12-13T08:39:24.054Z,24.31
2022-12-13T08:41:28.338Z,24.32
2022-12-13T08:43:41.496Z,24.32
2022-12-13T08:45:45.798Z,24.33
2022-12-13T08:47:50.057Z,24.32
2022-12-13T08:49:54.412Z,24.31
2022-12-13T08:52:05.814Z,24.29
2022-12-13T08:54:11.511Z,24.31
2022-12-13T08:56:33.353Z,24.36
2022-12-13T08:58:37.628Z,24.36
2022-12-13T09:00:41.972Z,24.38
2022-12-13T09:02:46.509Z,24.4
2022-12-13T09:04:51.030Z,24.42
2022-12-13T09:06:55.304Z,24.44
2022-12-13T09:09:04.962Z,24.45
2022-12-13T09:11:10.234Z,24.45
2022-12-13T09:13:43.258Z,24.45
2022-12-13T09:15:48.260Z,24.48
2022-12-13T09:17:53.036Z,24.5
2022-12-13T09:20:09.655Z,24.51
2022-12-13T09:22:34.209Z,24.52
2022-12-13T09:24:38.707Z,24.52
2022-12-13T09:26:43.157Z,24.53
2022-12-13T09:28:47.471Z,24.54
2022-12-13T09:30:51.793Z,24.56
2022-12-13T09:32:56.100Z,24.55
2022-12-13T09:35:00.416Z,24.57
2022-12-13T09:37:04.770Z,24.57
2022-12-13T09:39:09.062Z,24.58
2022-12-13T09:41:19.662Z,24.58
2022-12-13T09:43:33.919Z,24.6
2022-12-13T09:45:48.365Z,24.62
2022-12-13T09:47:53.073Z,24.62
2022-12-13T09:50:25.004Z,24.63
2022-12-13T09:52:33.386Z,24.64
2022-12-13T09:54:44.797Z,24.66
2022-12-13T09:56:52.773Z,24.66
2022-12-13T09:58:57.082Z,24.63
2022-12-13T10:01:01.473Z,24.61
2022-12-13T10:03:06.036Z,24.61
2022-12-13T10:05:12.633Z,24.59
2022-12-13T10:07:42.915Z,24.55
2022-12-13T10:09:47.177Z,24.54
2022-12-13T10:11:51.481Z,24.53
2022-12-13T10:13:55.830Z,24.53
2022-12-13T10:16:05.756Z,24.51
2022-12-13T10:18:10.200Z,24.49
2022-12-13T10:20:14.569Z,24.49
2022-12-13T10:22:18.884Z,24.5
2022-12-13T10:24:27.588Z,24.48
2022-12-13T10:26:40.677Z,24.45
2022-12-13T10:28:45.162Z,24.48
2022-12-13T10:30:49.481Z,24.46
2022-12-13T10:32:53.783Z,24.4
2022-12-13T10:34:58.107Z,24.39
2022-12-13T10:37:02.404Z,24.35
2022-12-13T10:39:06.722Z,24.35
2022-12-13T10:41:11.056Z,24.32
2022-12-13T10:43:15.347Z,24.31
2022-12-13T10:45:23.244Z,24.3
2022-12-13T10:47:27.801Z,24.32
2022-12-13T10:49:32.131Z,24.33
2022-12-13T10:51:36.471Z,24.33
2022-12-13T10:53:47.038Z,24.32
2022-12-13T10:55:52.254Z,24.31
2022-12-13T10:57:56.574Z,24.3
2022-12-13T11:00:01.072Z,24.29
2022-12-13T11:02:05.406Z,24.28
2022-12-13T11:04:09.922Z,24.27
2022-12-13T11:06:14.294Z,24.25
2022-12-13T11:08:18.749Z,24.24
2022-12-13T11:10:26.990Z,24.24
2022-12-13T11:12:31.990Z,24.24
2022-12-13T11:14:40.367Z,24.24
2022-12-13T11:16:47.656Z,24.23
2022-12-13T11:18:52.214Z,24.23
2022-12-13T11:20:56.535Z,24.23
2022-12-13T11:23:00.877Z,24.22
2022-12-13T11:25:05.342Z,24.21
2022-12-13T11:27:09.668Z,24.2
2022-12-13T11:29:13.982Z,24.22
2022-12-13T11:31:18.344Z,24.21
2022-12-13T11:33:22.855Z,24.24
2022-12-13T11:35:27.145Z,24.24
2022-12-13T11:37:31.453Z,24.24
2022-12-13T11:39:35.769Z,24.25
2022-12-13T11:41:40.069Z,24.26
2022-12-13T11:43:44.384Z,24.27
2022-12-13T11:45:48.744Z,24.26
2022-12-13T11:47:58.292Z,24.31
2022-12-13T11:50:02.935Z,24.33
2022-12-13T11:52:07.222Z,24.37
2022-12-13T11:54:11.534Z,24.4
2022-12-13T11:56:25.908Z,24.44
2022-12-13T11:59:00.950Z,24.43
2022-12-13T12:01:18.647Z,24.47
2022-12-13T12:03:23.020Z,24.49
2022-12-13T12:05:27.582Z,24.5
2022-12-13T12:07:33.449Z,24.51
2022-12-13T12:09:38.159Z,24.52
2022-12-13T12:11:42.449Z,24.53
2022-12-13T12:13:50.622Z,24.53
2022-12-13T12:15:56.338Z,24.54
2022-12-13T12:18:00.752Z,24.52
2022-12-13T12:20:05.149Z,24.53
2022-12-13T12:22:14.409Z,24.53
2022-12-13T12:24:19.576Z,24.55
2022-12-13T12:26:23.922Z,24.55
2022-12-13T12:28:28.514Z,24.56
2022-12-13T12:30:33.165Z,24.56
2022-12-13T12:32:37.474Z,24.56
2022-12-13T12:34:45.598Z,24.57
2022-12-13T12:36:49.898Z,24.58
2022-12-13T12:38:54.216Z,24.57
2022-12-13T12:43:33.508Z,24.59
2022-12-13T12:45:55.662Z,24.6
2022-12-13T12:51:06.125Z,24.57
2022-12-13T12:53:10.578Z,24.57
2022-12-13T12:55:15.018Z,24.54
2022-12-13T12:57:19.314Z,24.56
2022-12-13T12:59:23.624Z,24.57
2022-12-13T13:01:27.964Z,24.6
2022-12-13T13:03:46.321Z,24.59
2022-12-13T13:05:50.774Z,24.6
2022-12-13T13:08:04.604Z,24.59
2022-12-13T13:10:16.083Z,24.59
2022-12-13T13:12:31.047Z,24.61
2022-12-13T13:14:35.388Z,24.6
2022-12-13T13:16:39.686Z,24.61
2022-12-13T13:18:43.994Z,24.61
2022-12-13T13:20:48.420Z,24.61
2022-12-13T13:23:04.316Z,24.6
2022-12-13T13:26:00.637Z,24.6
2022-12-13T13:28:38.312Z,24.6
2022-12-13T13:30:42.726Z,24.6
2022-12-13T13:32:47.239Z,24.61
2022-12-13T13:34:52.642Z,24.6
2022-12-13T13:37:04.127Z,24.58
2022-12-13T13:39:08.424Z,24.61
2022-12-13T13:41:15.746Z,24.62
2022-12-13T13:43:20.134Z,24.61
2022-12-13T13:45:34.619Z,24.58
2022-12-13T13:47:39.026Z,24.57
2022-12-13T13:49:47.470Z,24.6
2022-12-13T13:52:23.635Z,24.7
2022-12-13T13:54:32.227Z,24.81
2022-12-13T13:56:49.934Z,24.89
2022-12-13T13:58:54.602Z,24.92
2022-12-13T14:01:01.228Z,24.92
2022-12-13T14:03:29.067Z,24.94
2022-12-13T14:05:38.823Z,24.95
2022-12-13T14:07:43.175Z,24.93
2022-12-13T14:09:47.483Z,24.89
2022-12-13T14:11:51.862Z,24.84
2022-12-13T14:13:56.335Z,24.81
2022-12-13T14:17:06.521Z,24.77
2022-12-13T14:19:10.847Z,24.78
2022-12-13T14:21:15.156Z,24.8
2022-12-13T14:23:21.319Z,24.79
2022-12-13T14:25:26.536Z,24.78
2022-12-13T14:27:30.865Z,24.77
2022-12-13T14:29:35.160Z,24.78
2022-12-13T14:31:39.528Z,24.75
2022-12-13T14:33:44.056Z,24.78
2022-12-13T14:35:51.778Z,24.79
2022-12-13T14:37:56.149Z,24.76
2022-12-13T14:40:00.837Z,24.73
2022-12-13T14:42:05.165Z,24.71
2022-12-13T14:44:09.482Z,24.7
2022-12-13T14:46:13.857Z,24.7
2022-12-13T14:48:28.142Z,24.71
2022-12-13T14:50:33.728Z,24.71
2022-12-13T14:52:38.049Z,24.7
2022-12-13T14:54:42.327Z,24.66
2022-12-13T14:56:46.643Z,24.26
2022-12-13T14:58:50.938Z,23.81
2022-12-13T15:00:58.767Z,23.68
2022-12-13T15:03:03.358Z,23.72
2022-12-13T15:05:07.684Z,23.77
2022-12-13T15:07:12.054Z,23.86
2022-12-13T15:09:16.486Z,23.97
2022-12-13T15:11:20.834Z,24.05
2022-12-13T15:13:25.411Z,24.12
2022-12-13T15:15:34.271Z,24.18
2022-12-13T15:17:38.605Z,24.26
2022-12-13T15:19:48.471Z,24.33
2022-12-13T15:21:54.177Z,24.37
2022-12-13T15:24:05.208Z,24.4
2022-12-13T15:26:09.598Z,24.46
2022-12-13T15:28:16.820Z,24.52
2022-12-13T15:30:30.255Z,24.56
2022-12-13T15:32:35.672Z,24.59
2022-12-13T15:34:39.989Z,24.63
2022-12-13T15:36:44.313Z,24.66
2022-12-13T15:38:52.410Z,24.7
2022-12-13T15:40:56.754Z,24.71
2022-12-13T15:43:01.110Z,24.72
2022-12-13T15:45:05.448Z,24.73
2022-12-13T15:47:09.754Z,24.76
2022-12-13T15:49:14.076Z,24.8
2022-12-13T15:51:29.040Z,24.83
2022-12-13T15:53:34.994Z,24.81
2022-12-13T15:55:39.313Z,24.83
2022-12-13T15:57:43.629Z,24.85
2022-12-13T15:59:47.987Z,24.86
2022-12-13T16:01:56.555Z,24.85
2022-12-13T16:04:02.294Z,24.85
2022-12-13T16:06:06.643Z,24.86
2022-12-13T16:08:14.343Z,24.85
2022-12-13T16:10:18.980Z,24.89
2022-12-13T16:12:23.383Z,24.88
2022-12-13T16:14:27.724Z,24.9
2022-12-13T16:16:32.654Z,24.91
2022-12-13T16:18:37.064Z,24.91
2022-12-13T16:20:41.518Z,24.9
2022-12-13T16:22:46.044Z,24.87
2022-12-13T16:24:50.363Z,24.87
2022-12-13T16:26:54.806Z,24.86
2022-12-13T16:29:01.924Z,24.86
2022-12-13T16:31:06.248Z,24.84
2022-12-13T16:33:18.913Z,24.87
2022-12-13T16:35:31.458Z,24.86
2022-12-13T16:37:35.763Z,24.85
2022-12-13T16:39:40.074Z,24.86
2022-12-13T16:41:44.551Z,24.86
2022-12-13T16:43:48.887Z,24.87
2022-12-13T16:45:53.279Z,24.89
2022-12-13T16:47:57.904Z,24.91
2022-12-13T16:50:02.509Z,24.93
2022-12-13T16:52:06.847Z,24.93
2022-12-13T16:54:11.162Z,24.96
2022-12-13T16:56:15.474Z,24.98
2022-12-13T16:58:19.965Z,24.98
2022-12-13T17:00:24.343Z,25
2022-12-13T17:02:28.724Z,25.02
2022-12-13T17:04:33.536Z,25.03
2022-12-13T17:06:37.829Z,25.06
2022-12-13T17:08:42.185Z,25.08
2022-12-13T17:10:46.518Z,25.09
2022-12-13T17:13:02.122Z,25.13
2022-12-13T17:15:06.446Z,25.14
2022-12-13T17:17:15.890Z,25.16
2022-12-13T17:19:21.979Z,25.23
2022-12-13T17:21:26.413Z,25.21
2022-12-13T17:23:31.275Z,25.2
2022-12-13T17:25:36.015Z,25.26
2022-12-13T17:27:40.501Z,25.27
2022-12-13T17:29:45.090Z,25.27
2022-12-13T17:31:49.458Z,25.3
2022-12-13T17:33:53.797Z,25.32
2022-12-13T17:35:58.141Z,25.32
2022-12-13T17:38:02.480Z,25.34
2022-12-13T17:40:06.833Z,25.33
2022-12-13T17:42:11.156Z,25.34
2022-12-13T17:44:15.510Z,25.34
2022-12-13T17:46:19.925Z,25.34
2022-12-13T17:48:24.889Z,25.34
2022-12-13T17:50:31.435Z,25.34
2022-12-13T17:52:35.764Z,25.33
2022-12-13T17:54:40.135Z,25.32
2022-12-13T17:56:44.434Z,25.28
2022-12-13T17:58:48.820Z,25.25
2022-12-13T18:00:53.153Z,25.23
2022-12-13T18:02:57.541Z,25.23
2022-12-13T18:05:02.150Z,25.26
2022-12-13T18:07:06.493Z,25.25
2022-12-13T18:09:10.842Z,25.24
2022-12-13T18:13:49.725Z,25.26
2022-12-13T18:15:59.548Z,25.28
2022-12-13T18:18:12.246Z,25.29
2022-12-13T18:20:17.029Z,25.29
2022-12-13T18:22:21.733Z,25.29
2022-12-13T18:24:26.379Z,25.31
2022-12-13T18:26:30.751Z,25.32
2022-12-13T18:28:35.056Z,25.35
2022-12-13T18:30:39.439Z,25.35
2022-12-13T18:32:44.068Z,25.34
2022-12-13T18:34:48.411Z,25.33
2022-12-13T18:36:59.083Z,25.33
2022-12-13T18:39:03.376Z,25.34
2022-12-13T18:41:07.717Z,25.36
2022-12-13T18:43:12.065Z,25.39
2022-12-13T18:45:16.424Z,25.4
2022-12-13T18:47:21.204Z,25.38
2022-12-13T18:49:25.644Z,25.38
2022-12-13T18:51:30.029Z,25.38
2022-12-13T18:53:34.388Z,25.39
2022-12-13T18:55:38.765Z,25.41
2022-12-13T18:57:43.179Z,25.41
2022-12-13T18:59:54.159Z,25.42
2022-12-13T19:01:59.350Z,25.44
2022-12-13T19:04:03.968Z,25.47
2022-12-13T19:06:08.291Z,25.49
2022-12-13T19:08:12.749Z,25.5
2022-12-13T19:10:17.104Z,25.52
2022-12-13T19:12:21.480Z,25.56
2022-12-13T19:14:27.218Z,25.59
2022-12-13T19:16:31.815Z,25.58
2022-12-13T19:18:36.324Z,25.57
2022-12-13T19:20:40.748Z,25.55
2022-12-13T19:22:45.149Z,25.5
2022-12-13T19:24:49.624Z,25.4
2022-12-13T19:26:54.132Z,25.4
2022-12-13T19:28:58.581Z,25.43
2022-12-13T19:31:03.164Z,25.46
2022-12-13T19:33:07.910Z,25.46
2022-12-13T19:35:12.321Z,25.45
2022-12-13T19:37:16.671Z,25.45
2022-12-13T19:39:20.963Z,25.47
2022-12-13T19:41:25.313Z,25.49
2022-12-13T19:43:30.287Z,25.49
2022-12-13T19:45:34.903Z,25.5
2022-12-13T19:47:39.258Z,25.49
2022-12-13T19:49:47.307Z,25.48
2022-12-13T19:51:52.770Z,25.51
2022-12-13T19:53:57.194Z,25.51
2022-12-13T19:56:01.646Z,25.55
2022-12-13T19:58:06.043Z,25.56
2022-12-13T20:00:10.480Z,25.56
2022-12-13T20:02:14.934Z,25.58
2022-12-13T20:04:19.356Z,25.58
2022-12-13T20:06:23.800Z,25.61
2022-12-13T20:08:28.195Z,25.65
2022-12-13T20:10:32.614Z,25.68
2022-12-13T20:12:40.837Z,25.71
2022-12-13T20:14:45.668Z,25.74
2022-12-13T20:16:50.108Z,25.78
2022-12-13T20:18:55.373Z,25.75
2022-12-13T20:21:11.420Z,25.78
2022-12-13T20:23:17.647Z,25.81
2022-12-13T20:25:22.379Z,25.82
2022-12-13T20:27:26.829Z,25.81
2022-12-13T20:29:31.637Z,25.79
2022-12-13T20:31:36.122Z,25.78
2022-12-13T20:33:40.699Z,25.77
2022-12-13T20:36:00.872Z,25.76
2022-12-13T20:38:29.781Z,25.73
2022-12-13T20:40:34.143Z,25.72
2022-12-13T20:42:38.562Z,25.74
2022-12-13T20:44:42.919Z,25.71
2022-12-13T20:46:47.354Z,25.71
2022-12-13T20:48:51.833Z,25.75
2022-12-13T20:50:56.213Z,25.74
2022-12-13T20:53:00.626Z,25.76
2022-12-13T20:55:04.931Z,25.77
2022-12-13T20:57:09.298Z,25.79
2022-12-13T20:59:13.817Z,25.78
2022-12-13T21:01:18.216Z,25.78
2022-12-13T21:03:23.007Z,25.77
2022-12-13T21:05:28.549Z,25.8
2022-12-13T21:07:32.965Z,25.8
2022-12-13T21:09:37.396Z,25.81
2022-12-13T21:11:41.833Z,25.81
2022-12-13T21:13:46.283Z,25.81
2022-12-13T21:15:52.994Z,25.8
2022-12-13T21:17:57.721Z,25.8
2022-12-13T21:20:02.222Z,25.78
2022-12-13T21:22:06.864Z,25.78
2022-12-13T21:24:11.396Z,25.79
2022-12-13T21:26:15.801Z,25.8
2022-12-13T21:28:20.219Z,25.82
2022-12-13T21:30:24.642Z,25.84
2022-12-13T21:32:29.022Z,25.87
2022-12-13T21:34:33.485Z,25.89
2022-12-13T21:36:37.949Z,25.93
2022-12-13T21:38:42.340Z,25.96
2022-12-13T21:40:46.736Z,25.97
2022-12-13T21:42:51.365Z,25.97
2022-12-13T21:45:00.505Z,25.96
2022-12-13T21:47:14.005Z,25.95
2022-12-13T21:49:18.556Z,25.97
2022-12-13T21:51:22.948Z,25.98
2022-12-13T21:53:27.764Z,25.98
2022-12-13T21:55:40.175Z,25.98
2022-12-13T21:57:44.679Z,25.97
2022-12-13T21:59:49.020Z,25.96
2022-12-13T22:01:53.391Z,25.93
2022-12-13T22:03:59.740Z,25.91
2022-12-13T22:06:10.409Z,25.92
2022-12-13T22:08:14.801Z,25.91
2022-12-13T22:10:19.145Z,25.88
2022-12-13T22:12:23.453Z,25.89
2022-12-13T22:14:27.802Z,25.88
2022-12-13T22:16:32.169Z,25.87
2022-12-13T22:18:36.796Z,25.87
2022-12-13T22:20:41.193Z,25.87
2022-12-13T22:22:45.701Z,25.87
2022-12-13T22:24:53.630Z,25.84
2022-12-13T22:26:58.187Z,25.83
2022-12-13T22:29:02.575Z,25.79
2022-12-13T22:31:06.929Z,25.8
2022-12-13T22:33:11.253Z,25.8
2022-12-13T22:35:15.581Z,25.79
2022-12-13T22:37:19.924Z,25.76
2022-12-13T22:39:24.250Z,25.74
2022-12-13T22:41:28.559Z,25.73
2022-12-13T22:43:32.882Z,25.74
2022-12-13T22:45:37.276Z,25.72
2022-12-13T22:47:41.779Z,25.73
2022-12-13T22:49:48.498Z,25.74
2022-12-13T22:51:53.359Z,25.74
2022-12-13T22:53:57.663Z,25.74
2022-12-13T22:56:02.006Z,25.73
2022-12-13T22:58:06.430Z,25.73
2022-12-13T23:00:10.779Z,25.72
2022-12-13T23:02:15.210Z,25.73
2022-12-13T23:04:20.154Z,25.72
2022-12-13T23:06:24.494Z,25.7
2022-12-13T23:08:29.145Z,25.69
2022-12-13T23:10:33.697Z,25.69
2022-12-13T23:12:38.064Z,25.69
2022-12-13T23:14:42.420Z,25.69
2022-12-13T23:16:46.834Z,25.68
2022-12-13T23:19:01.304Z,25.67
2022-12-13T23:21:53.985Z,25.64
2022-12-13T23:23:58.273Z,25.66
2022-12-13T23:26:02.748Z,25.67
2022-12-13T23:28:07.051Z,25.66
2022-12-13T23:30:11.336Z,25.66
2022-12-13T23:32:15.798Z,25.64
2022-12-13T23:34:20.079Z,25.63
2022-12-13T23:36:24.363Z,25.62
2022-12-13T23:38:28.989Z,25.63
2022-12-13T23:40:33.631Z,25.64
2022-12-13T23:42:38.085Z,25.62
2022-12-13T23:44:42.385Z,25.62
2022-12-13T23:46:48.657Z,25.61
2022-12-13T23:48:55.088Z,25.62
2022-12-13T23:50:59.379Z,25.6
2022-12-13T23:53:03.784Z,25.61
2022-12-13T23:55:08.068Z,25.61
2022-12-13T23:57:12.358Z,25.6
2022-12-13T23:59:16.634Z,25.62
